OTBD/DOH METAR and TAF weather

Enter ICAO airport designator
Station Type Date Time Source
OTBD METAR 2019/12/14 17:00 UTC NOAA

OTBD 141700Z 01001KT CAVOK 23/19 Q1018 NOSIG


Station Type Date Time Source
OTBD Decoded METAR 2019/12/14 17:00 UTC NOAA

Doha International Airport, Qatar (OTBD) 25-15N 051-34E 10M
Dec 14, 2019 - 12:00 PM EST / 2019.12.14 1700 UTC
Wind: from the N (010 degrees) at 1 MPH (1 KT):0
Visibility: greater than 7 mile(s):0
Temperature: 73 F (23 C)
Dew Point: 66 F (19 C)
Relative Humidity: 78%
Pressure (altimeter): 30.06 in. Hg (1018 hPa)
ob: OTBD 141700Z 01001KT CAVOK 23/19 Q1018 NOSIG
cycle: 17

Station Type Date Time Source
OTBD TAF 2019/12/14 18:12 UTC NOAA

TAF TAF OTBD 141707Z 1418/1524 VRB02KT 8000 NSC
BECMG 1421/1423 06008KT FEW030 SCT100
TEMPO 1500/1515 6000 RA SCT035 BKN100 PROB40
TEMPO 1506/1521 VRB15G25KT 4000 -TSRA FEW035CB BKN080

Example: see airport list